sensor_id;sensor_type;location;lat;lon;timestamp;temperature;humidity
63899;HTU21D;50070;-32.946;-60.652;2022-11-23T00:01:30;25.56;19.30
63899;HTU21D;50070;-32.946;-60.652;2022-11-23T00:04:01;25.52;19.63
63899;HTU21D;50070;-32.946;-60.652;2022-11-23T00:06:28;25.57;19.75
63899;HTU21D;50070;-32.946;-60.652;2022-11-23T00:08:56;25.58;20.00
63899;HTU21D;50070;-32.946;-60.652;2022-11-23T00:11:23;25.50;20.95
63899;HTU21D;50070;-32.946;-60.652;2022-11-23T00:13:51;25.44;22.53
63899;HTU21D;50070;-32.946;-60.652;2022-11-23T00:16:29;25.52;23.75
63899;HTU21D;50070;-32.946;-60.652;2022-11-23T00:18:57;25.38;24.72
63899;HTU21D;50070;-32.946;-60.652;2022-11-23T00:21:26;25.31;24.80
63899;HTU21D;50070;-32.946;-60.652;2022-11-23T00:23:53;25.25;26.23
63899;HTU21D;50070;-32.946;-60.652;2022-11-23T00:26:21;25.31;27.87
63899;HTU21D;50070;-32.946;-60.652;2022-11-23T00:28:47;25.16;28.15
63899;HTU21D;50070;-32.946;-60.652;2022-11-23T00:31:16;25.16;27.23
63899;HTU21D;50070;-32.946;-60.652;2022-11-23T00:33:52;25.21;27.32
63899;HTU21D;50070;-32.946;-60.652;2022-11-23T00:36:19;25.18;27.30
63899;HTU21D;50070;-32.946;-60.652;2022-11-23T00:38:47;25.25;26.88
63899;HTU21D;50070;-32.946;-60.652;2022-11-23T00:41:20;25.21;26.96
63899;HTU21D;50070;-32.946;-60.652;2022-11-23T00:43:48;25.22;29.59
63899;HTU21D;50070;-32.946;-60.652;2022-11-23T00:46:22;25.16;27.27
63899;HTU21D;50070;-32.946;-60.652;2022-11-23T00:48:51;25.09;27.35
63899;HTU21D;50070;-32.946;-60.652;2022-11-23T00:51:21;25.06;28.26
63899;HTU21D;50070;-32.946;-60.652;2022-11-23T00:53:49;25.00;29.06
63899;HTU21D;50070;-32.946;-60.652;2022-11-23T00:56:17;25.03;29.49
63899;HTU21D;50070;-32.946;-60.652;2022-11-23T00:58:50;25.05;29.07
63899;HTU21D;50070;-32.946;-60.652;2022-11-23T01:01:20;24.98;29.23
63899;HTU21D;50070;-32.946;-60.652;2022-11-23T01:03:49;24.98;30.64
63899;HTU21D;50070;-32.946;-60.652;2022-11-23T01:06:19;24.85;32.06
63899;HTU21D;50070;-32.946;-60.652;2022-11-23T01:08:51;24.88;30.51
63899;HTU21D;50070;-32.946;-60.652;2022-11-23T01:11:22;24.90;31.48
63899;HTU21D;50070;-32.946;-60.652;2022-11-23T01:13:49;24.79;32.36
63899;HTU21D;50070;-32.946;-60.652;2022-11-23T01:16:28;24.85;32.11
63899;HTU21D;50070;-32.946;-60.652;2022-11-23T01:19:00;24.93;31.62
63899;HTU21D;50070;-32.946;-60.652;2022-11-23T01:21:30;24.79;32.00
63899;HTU21D;50070;-32.946;-60.652;2022-11-23T01:23:57;24.99;32.09
63899;HTU21D;50070;-32.946;-60.652;2022-11-23T01:26:24;24.73;31.90
63899;HTU21D;50070;-32.946;-60.652;2022-11-23T01:28:51;24.59;32.74
63899;HTU21D;50070;-32.946;-60.652;2022-11-23T01:31:20;24.49;31.76
63899;HTU21D;50070;-32.946;-60.652;2022-11-23T01:33:51;24.54;33.34
63899;HTU21D;50070;-32.946;-60.652;2022-11-23T01:36:21;24.43;33.77
63899;HTU21D;50070;-32.946;-60.652;2022-11-23T01:38:49;24.50;32.70
63899;HTU21D;50070;-32.946;-60.652;2022-11-23T01:41:38;24.71;31.48
63899;HTU21D;50070;-32.946;-60.652;2022-11-23T01:46:50;24.75;30.32
63899;HTU21D;50070;-32.946;-60.652;2022-11-23T01:49:17;24.65;29.85
63899;HTU21D;50070;-32.946;-60.652;2022-11-23T01:51:47;24.70;30.03
63899;HTU21D;50070;-32.946;-60.652;2022-11-23T01:56:58;24.70;30.13
63899;HTU21D;50070;-32.946;-60.652;2022-11-23T01:59:29;24.31;30.20
63899;HTU21D;50070;-32.946;-60.652;2022-11-23T02:01:58;24.38;29.39
63899;HTU21D;50070;-32.946;-60.652;2022-11-23T02:04:30;24.36;29.62
63899;HTU21D;50070;-32.946;-60.652;2022-11-23T02:07:00;24.58;29.39
63899;HTU21D;50070;-32.946;-60.652;2022-11-23T02:09:31;24.60;28.79
63899;HTU21D;50070;-32.946;-60.652;2022-11-23T02:11:59;24.47;28.78
63899;HTU21D;50070;-32.946;-60.652;2022-11-23T02:14:26;24.58;28.32
63899;HTU21D;50070;-32.946;-60.652;2022-11-23T02:16:54;24.48;27.80
63899;HTU21D;50070;-32.946;-60.652;2022-11-23T02:19:31;24.45;28.49
63899;HTU21D;50070;-32.946;-60.652;2022-11-23T02:22:01;24.44;27.43
63899;HTU21D;50070;-32.946;-60.652;2022-11-23T02:24:33;24.34;27.55
63899;HTU21D;50070;-32.946;-60.652;2022-11-23T02:27:01;24.43;27.71
63899;HTU21D;50070;-32.946;-60.652;2022-11-23T02:29:29;24.31;28.11
63899;HTU21D;50070;-32.946;-60.652;2022-11-23T02:31:58;24.25;29.06
63899;HTU21D;50070;-32.946;-60.652;2022-11-23T02:34:24;24.04;29.98
63899;HTU21D;50070;-32.946;-60.652;2022-11-23T02:36:54;24.12;30.32
63899;HTU21D;50070;-32.946;-60.652;2022-11-23T02:39:45;23.97;31.15
63899;HTU21D;50070;-32.946;-60.652;2022-11-23T02:42:13;23.83;32.01
63899;HTU21D;50070;-32.946;-60.652;2022-11-23T02:47:14;23.90;32.25
63899;HTU21D;50070;-32.946;-60.652;2022-11-23T02:49:43;23.69;32.93
63899;HTU21D;50070;-32.946;-60.652;2022-11-23T02:52:11;23.71;32.99
63899;HTU21D;50070;-32.946;-60.652;2022-11-23T02:54:38;23.49;32.70
63899;HTU21D;50070;-32.946;-60.652;2022-11-23T02:57:05;23.68;32.80
63899;HTU21D;50070;-32.946;-60.652;2022-11-23T02:59:32;23.70;32.39
63899;HTU21D;50070;-32.946;-60.652;2022-11-23T03:02:00;23.76;31.44
63899;HTU21D;50070;-32.946;-60.652;2022-11-23T03:04:27;23.73;31.47
63899;HTU21D;50070;-32.946;-60.652;2022-11-23T03:06:53;23.59;30.54
63899;HTU21D;50070;-32.946;-60.652;2022-11-23T03:09:20;23.56;32.41
63899;HTU21D;50070;-32.946;-60.652;2022-11-23T03:11:47;23.37;32.39
63899;HTU21D;50070;-32.946;-60.652;2022-11-23T03:14:14;23.28;32.67
63899;HTU21D;50070;-32.946;-60.652;2022-11-23T03:16:41;23.40;30.64
63899;HTU21D;50070;-32.946;-60.652;2022-11-23T03:19:07;23.31;31.00
63899;HTU21D;50070;-32.946;-60.652;2022-11-23T03:21:34;22.99;33.95
63899;HTU21D;50070;-32.946;-60.652;2022-11-23T03:24:01;22.78;34.15
63899;HTU21D;50070;-32.946;-60.652;2022-11-23T03:26:27;22.73;34.97
63899;HTU21D;50070;-32.946;-60.652;2022-11-23T03:28:54;22.70;31.96
63899;HTU21D;50070;-32.946;-60.652;2022-11-23T03:31:21;23.02;32.33
63899;HTU21D;50070;-32.946;-60.652;2022-11-23T03:33:47;23.14;31.24
63899;HTU21D;50070;-32.946;-60.652;2022-11-23T03:36:14;22.92;26.53
63899;HTU21D;50070;-32.946;-60.652;2022-11-23T03:38:41;22.85;26.42
63899;HTU21D;50070;-32.946;-60.652;2022-11-23T03:41:07;23.13;25.83
63899;HTU21D;50070;-32.946;-60.652;2022-11-23T03:43:34;23.11;25.80
63899;HTU21D;50070;-32.946;-60.652;2022-11-23T03:46:01;22.94;25.13
63899;HTU21D;50070;-32.946;-60.652;2022-11-23T03:48:27;22.78;25.05
63899;HTU21D;50070;-32.946;-60.652;2022-11-23T03:50:54;22.86;24.98
63899;HTU21D;50070;-32.946;-60.652;2022-11-23T03:53:21;22.71;25.81
63899;HTU21D;50070;-32.946;-60.652;2022-11-23T03:55:47;22.55;27.20
63899;HTU21D;50070;-32.946;-60.652;2022-11-23T03:58:14;22.51;26.92
63899;HTU21D;50070;-32.946;-60.652;2022-11-23T04:00:41;22.58;27.27
63899;HTU21D;50070;-32.946;-60.652;2022-11-23T04:03:07;22.42;28.00
63899;HTU21D;50070;-32.946;-60.652;2022-11-23T04:05:35;22.23;28.07
63899;HTU21D;50070;-32.946;-60.652;2022-11-23T04:08:01;22.29;27.67
63899;HTU21D;50070;-32.946;-60.652;2022-11-23T04:10:28;22.31;27.99
63899;HTU21D;50070;-32.946;-60.652;2022-11-23T04:12:54;22.26;27.55
63899;HTU21D;50070;-32.946;-60.652;2022-11-23T04:15:21;22.25;28.55
63899;HTU21D;50070;-32.946;-60.652;2022-11-23T04:17:48;22.27;28.64
63899;HTU21D;50070;-32.946;-60.652;2022-11-23T04:20:14;22.31;27.45
63899;HTU21D;50070;-32.946;-60.652;2022-11-23T04:22:41;22.21;27.51
63899;HTU21D;50070;-32.946;-60.652;2022-11-23T04:25:08;22.22;26.82
63899;HTU21D;50070;-32.946;-60.652;2022-11-23T04:27:35;22.12;27.16
63899;HTU21D;50070;-32.946;-60.652;2022-11-23T04:30:02;22.07;26.11
63899;HTU21D;50070;-32.946;-60.652;2022-11-23T04:32:29;22.04;26.49
63899;HTU21D;50070;-32.946;-60.652;2022-11-23T04:34:56;22.06;27.11
63899;HTU21D;50070;-32.946;-60.652;2022-11-23T04:37:22;21.98;27.18
63899;HTU21D;50070;-32.946;-60.652;2022-11-23T04:39:49;21.79;27.77
63899;HTU21D;50070;-32.946;-60.652;2022-11-23T04:42:16;22.18;27.20
63899;HTU21D;50070;-32.946;-60.652;2022-11-23T04:44:42;22.09;26.59
63899;HTU21D;50070;-32.946;-60.652;2022-11-23T04:47:10;22.21;26.18
63899;HTU21D;50070;-32.946;-60.652;2022-11-23T04:49:37;22.23;25.31
63899;HTU21D;50070;-32.946;-60.652;2022-11-23T04:52:04;21.96;26.02
63899;HTU21D;50070;-32.946;-60.652;2022-11-23T04:54:31;21.95;27.16
63899;HTU21D;50070;-32.946;-60.652;2022-11-23T04:56:57;21.90;26.76
63899;HTU21D;50070;-32.946;-60.652;2022-11-23T04:59:24;21.81;26.39
63899;HTU21D;50070;-32.946;-60.652;2022-11-23T05:01:51;21.75;26.96
63899;HTU21D;50070;-32.946;-60.652;2022-11-23T05:04:18;21.81;26.47
63899;HTU21D;50070;-32.946;-60.652;2022-11-23T05:06:45;22.03;26.30
63899;HTU21D;50070;-32.946;-60.652;2022-11-23T05:09:12;22.10;26.43
63899;HTU21D;50070;-32.946;-60.652;2022-11-23T05:11:38;21.96;26.71
63899;HTU21D;50070;-32.946;-60.652;2022-11-23T05:14:05;21.95;28.43
63899;HTU21D;50070;-32.946;-60.652;2022-11-23T05:16:31;21.95;27.99
63899;HTU21D;50070;-32.946;-60.652;2022-11-23T05:18:58;22.02;27.84
63899;HTU21D;50070;-32.946;-60.652;2022-11-23T05:21:25;21.99;27.75
63899;HTU21D;50070;-32.946;-60.652;2022-11-23T05:23:51;21.87;28.83
63899;HTU21D;50070;-32.946;-60.652;2022-11-23T05:26:18;21.78;29.71
63899;HTU21D;50070;-32.946;-60.652;2022-11-23T05:28:45;21.99;28.61
63899;HTU21D;50070;-32.946;-60.652;2022-11-23T05:31:11;22.05;28.86
63899;HTU21D;50070;-32.946;-60.652;2022-11-23T05:33:38;21.98;28.57
63899;HTU21D;50070;-32.946;-60.652;2022-11-23T05:36:05;22.17;28.61
63899;HTU21D;50070;-32.946;-60.652;2022-11-23T05:38:32;21.90;29.94
63899;HTU21D;50070;-32.946;-60.652;2022-11-23T05:40:59;21.90;30.23
63899;HTU21D;50070;-32.946;-60.652;2022-11-23T05:43:25;21.85;29.86
63899;HTU21D;50070;-32.946;-60.652;2022-11-23T05:45:52;21.90;31.16
63899;HTU21D;50070;-32.946;-60.652;2022-11-23T05:48:18;21.81;31.77
63899;HTU21D;50070;-32.946;-60.652;2022-11-23T05:50:45;22.22;30.13
63899;HTU21D;50070;-32.946;-60.652;2022-11-23T05:53:12;21.95;29.88
63899;HTU21D;50070;-32.946;-60.652;2022-11-23T05:55:38;21.99;30.34
63899;HTU21D;50070;-32.946;-60.652;2022-11-23T05:58:05;22.08;30.67
63899;HTU21D;50070;-32.946;-60.652;2022-11-23T06:00:31;22.03;30.80
63899;HTU21D;50070;-32.946;-60.652;2022-11-23T06:02:59;22.13;30.66
63899;HTU21D;50070;-32.946;-60.652;2022-11-23T06:05:27;22.04;30.84
63899;HTU21D;50070;-32.946;-60.652;2022-11-23T06:07:54;22.02;30.80
63899;HTU21D;50070;-32.946;-60.652;2022-11-23T06:10:22;22.08;30.80
63899;HTU21D;50070;-32.946;-60.652;2022-11-23T06:12:49;22.22;30.69
63899;HTU21D;50070;-32.946;-60.652;2022-11-23T06:15:16;21.97;31.16
63899;HTU21D;50070;-32.946;-60.652;2022-11-23T06:17:43;22.17;31.09
63899;HTU21D;50070;-32.946;-60.652;2022-11-23T06:20:10;21.98;31.57
63899;HTU21D;50070;-32.946;-60.652;2022-11-23T06:22:37;22.05;31.55
63899;HTU21D;50070;-32.946;-60.652;2022-11-23T06:25:04;22.05;32.28
63899;HTU21D;50070;-32.946;-60.652;2022-11-23T06:27:30;21.92;33.60
63899;HTU21D;50070;-32.946;-60.652;2022-11-23T06:29:57;22.01;34.18
63899;HTU21D;50070;-32.946;-60.652;2022-11-23T06:32:24;22.05;33.76
63899;HTU21D;50070;-32.946;-60.652;2022-11-23T06:34:50;21.89;34.29
63899;HTU21D;50070;-32.946;-60.652;2022-11-23T06:37:17;21.88;34.32
63899;HTU21D;50070;-32.946;-60.652;2022-11-23T06:39:43;21.99;34.69
63899;HTU21D;50070;-32.946;-60.652;2022-11-23T06:42:10;21.87;35.85
63899;HTU21D;50070;-32.946;-60.652;2022-11-23T06:44:38;21.89;36.52
63899;HTU21D;50070;-32.946;-60.652;2022-11-23T06:47:04;21.80;36.58
63899;HTU21D;50070;-32.946;-60.652;2022-11-23T06:49:31;21.77;36.45
63899;HTU21D;50070;-32.946;-60.652;2022-11-23T06:51:58;21.93;35.95
63899;HTU21D;50070;-32.946;-60.652;2022-11-23T06:54:24;21.87;36.34
63899;HTU21D;50070;-32.946;-60.652;2022-11-23T06:56:53;22.06;35.91
63899;HTU21D;50070;-32.946;-60.652;2022-11-23T06:59:20;21.92;36.73
63899;HTU21D;50070;-32.946;-60.652;2022-11-23T07:01:46;21.81;37.35
63899;HTU21D;50070;-32.946;-60.652;2022-11-23T07:04:15;21.84;37.49
63899;HTU21D;50070;-32.946;-60.652;2022-11-23T07:06:42;21.80;37.68
63899;HTU21D;50070;-32.946;-60.652;2022-11-23T07:09:09;21.92;37.36
63899;HTU21D;50070;-32.946;-60.652;2022-11-23T07:11:36;21.81;38.38
63899;HTU21D;50070;-32.946;-60.652;2022-11-23T07:14:03;21.79;37.82
63899;HTU21D;50070;-32.946;-60.652;2022-11-23T07:16:29;21.70;38.14
63899;HTU21D;50070;-32.946;-60.652;2022-11-23T07:18:56;21.52;39.70
63899;HTU21D;50070;-32.946;-60.652;2022-11-23T07:21:23;21.53;38.57
63899;HTU21D;50070;-32.946;-60.652;2022-11-23T07:23:50;21.44;39.08
63899;HTU21D;50070;-32.946;-60.652;2022-11-23T07:26:16;21.48;38.71
63899;HTU21D;50070;-32.946;-60.652;2022-11-23T07:28:43;21.47;39.57
63899;HTU21D;50070;-32.946;-60.652;2022-11-23T07:31:10;21.39;40.70
63899;HTU21D;50070;-32.946;-60.652;2022-11-23T07:33:36;21.47;39.99
63899;HTU21D;50070;-32.946;-60.652;2022-11-23T07:36:03;21.49;40.73
63899;HTU21D;50070;-32.946;-60.652;2022-11-23T07:38:30;21.42;41.85
63899;HTU21D;50070;-32.946;-60.652;2022-11-23T07:40:57;21.44;41.67
63899;HTU21D;50070;-32.946;-60.652;2022-11-23T07:43:25;21.28;42.76
63899;HTU21D;50070;-32.946;-60.652;2022-11-23T07:45:54;21.53;42.00
63899;HTU21D;50070;-32.946;-60.652;2022-11-23T07:48:22;21.47;42.42
63899;HTU21D;50070;-32.946;-60.652;2022-11-23T07:50:52;21.33;43.56
63899;HTU21D;50070;-32.946;-60.652;2022-11-23T07:53:19;21.33;43.13
63899;HTU21D;50070;-32.946;-60.652;2022-11-23T07:55:46;21.32;43.48
63899;HTU21D;50070;-32.946;-60.652;2022-11-23T07:58:13;21.29;42.74
63899;HTU21D;50070;-32.946;-60.652;2022-11-23T08:00:39;21.29;42.94
63899;HTU21D;50070;-32.946;-60.652;2022-11-23T08:03:07;21.23;43.03
63899;HTU21D;50070;-32.946;-60.652;2022-11-23T08:05:35;21.23;43.00
63899;HTU21D;50070;-32.946;-60.652;2022-11-23T08:08:02;20.99;44.70
63899;HTU21D;50070;-32.946;-60.652;2022-11-23T08:10:30;21.00;44.74
63899;HTU21D;50070;-32.946;-60.652;2022-11-23T08:13:03;21.08;43.83
63899;HTU21D;50070;-32.946;-60.652;2022-11-23T08:15:30;20.99;43.93
63899;HTU21D;50070;-32.946;-60.652;2022-11-23T08:17:59;20.98;43.79
63899;HTU21D;50070;-32.946;-60.652;2022-11-23T08:20:27;20.98;43.80
63899;HTU21D;50070;-32.946;-60.652;2022-11-23T08:22:54;20.96;44.11
63899;HTU21D;50070;-32.946;-60.652;2022-11-23T08:25:22;20.89;44.42
63899;HTU21D;50070;-32.946;-60.652;2022-11-23T08:27:54;20.94;44.24
63899;HTU21D;50070;-32.946;-60.652;2022-11-23T08:30:21;20.89;44.51
63899;HTU21D;50070;-32.946;-60.652;2022-11-23T08:32:47;20.80;44.87
63899;HTU21D;50070;-32.946;-60.652;2022-11-23T08:35:14;20.78;45.04
63899;HTU21D;50070;-32.946;-60.652;2022-11-23T08:37:41;20.79;45.25
63899;HTU21D;50070;-32.946;-60.652;2022-11-23T08:40:08;20.93;45.03
63899;HTU21D;50070;-32.946;-60.652;2022-11-23T08:42:35;20.93;45.12
63899;HTU21D;50070;-32.946;-60.652;2022-11-23T08:45:01;20.80;45.87
63899;HTU21D;50070;-32.946;-60.652;2022-11-23T08:47:33;20.88;46.41
63899;HTU21D;50070;-32.946;-60.652;2022-11-23T08:50:00;20.79;46.83
63899;HTU21D;50070;-32.946;-60.652;2022-11-23T08:52:26;20.74;47.28
63899;HTU21D;50070;-32.946;-60.652;2022-11-23T08:54:53;20.68;47.83
63899;HTU21D;50070;-32.946;-60.652;2022-11-23T08:57:20;20.68;48.38
63899;HTU21D;50070;-32.946;-60.652;2022-11-23T08:59:46;20.74;48.50
63899;HTU21D;50070;-32.946;-60.652;2022-11-23T09:02:13;20.66;49.52
63899;HTU21D;50070;-32.946;-60.652;2022-11-23T09:04:40;20.62;49.85
63899;HTU21D;50070;-32.946;-60.652;2022-11-23T09:07:07;20.58;50.49
63899;HTU21D;50070;-32.946;-60.652;2022-11-23T09:09:33;20.55;51.59
63899;HTU21D;50070;-32.946;-60.652;2022-11-23T09:12:00;20.61;52.07
63899;HTU21D;50070;-32.946;-60.652;2022-11-23T09:14:27;20.16;54.67
63899;HTU21D;50070;-32.946;-60.652;2022-11-23T09:16:54;20.32;54.66
63899;HTU21D;50070;-32.946;-60.652;2022-11-23T09:19:21;20.36;54.98
63899;HTU21D;50070;-32.946;-60.652;2022-11-23T09:21:47;19.98;56.10
63899;HTU21D;50070;-32.946;-60.652;2022-11-23T09:24:13;19.97;56.15
63899;HTU21D;50070;-32.946;-60.652;2022-11-23T09:26:40;20.00;55.67
63899;HTU21D;50070;-32.946;-60.652;2022-11-23T09:29:07;20.28;54.97
63899;HTU21D;50070;-32.946;-60.652;2022-11-23T09:31:37;20.15;54.92
63899;HTU21D;50070;-32.946;-60.652;2022-11-23T09:34:04;20.21;54.74
63899;HTU21D;50070;-32.946;-60.652;2022-11-23T09:36:31;20.21;53.73
63899;HTU21D;50070;-32.946;-60.652;2022-11-23T09:38:57;20.14;52.74
63899;HTU21D;50070;-32.946;-60.652;2022-11-23T09:48:14;20.46;49.84
63899;HTU21D;50070;-32.946;-60.652;2022-11-23T09:52:34;20.66;45.89
63899;HTU21D;50070;-32.946;-60.652;2022-11-23T09:57:55;20.50;47.28
63899;HTU21D;50070;-32.946;-60.652;2022-11-23T10:00:24;20.77;46.60
63899;HTU21D;50070;-32.946;-60.652;2022-11-23T10:02:52;20.84;47.62
63899;HTU21D;50070;-32.946;-60.652;2022-11-23T10:05:23;20.81;47.61
63899;HTU21D;50070;-32.946;-60.652;2022-11-23T10:10:44;20.88;50.63
63899;HTU21D;50070;-32.946;-60.652;2022-11-23T10:13:25;21.06;51.72
63899;HTU21D;50070;-32.946;-60.652;2022-11-23T10:19:18;21.09;50.98
63899;HTU21D;50070;-32.946;-60.652;2022-11-23T10:21:54;21.11;49.76
63899;HTU21D;50070;-32.946;-60.652;2022-11-23T10:24:31;21.35;46.54
63899;HTU21D;50070;-32.946;-60.652;2022-11-23T10:26:58;21.22;43.42
63899;HTU21D;50070;-32.946;-60.652;2022-11-23T10:29:36;21.21;42.87
63899;HTU21D;50070;-32.946;-60.652;2022-11-23T10:32:31;21.36;41.45
63899;HTU21D;50070;-32.946;-60.652;2022-11-23T10:35:12;21.59;40.87
63899;HTU21D;50070;-32.946;-60.652;2022-11-23T10:37:40;21.46;40.84
63899;HTU21D;50070;-32.946;-60.652;2022-11-23T10:40:25;21.67;40.62
63899;HTU21D;50070;-32.946;-60.652;2022-11-23T10:43:00;21.74;42.43
63899;HTU21D;50070;-32.946;-60.652;2022-11-23T10:45:29;21.51;41.61
63899;HTU21D;50070;-32.946;-60.652;2022-11-23T10:47:58;21.62;42.08
63899;HTU21D;50070;-32.946;-60.652;2022-11-23T10:50:30;21.87;41.62
63899;HTU21D;50070;-32.946;-60.652;2022-11-23T10:55:53;22.02;43.01
63899;HTU21D;50070;-32.946;-60.652;2022-11-23T11:01:03;21.83;42.97
63899;HTU21D;50070;-32.946;-60.652;2022-11-23T11:03:32;21.83;42.39
63899;HTU21D;50070;-32.946;-60.652;2022-11-23T11:06:00;21.97;42.11
63899;HTU21D;50070;-32.946;-60.652;2022-11-23T11:08:58;22.10;42.00
63899;HTU21D;50070;-32.946;-60.652;2022-11-23T11:11:31;21.82;42.54
63899;HTU21D;50070;-32.946;-60.652;2022-11-23T11:14:16;22.05;41.82
63899;HTU21D;50070;-32.946;-60.652;2022-11-23T11:16:54;22.04;42.62
63899;HTU21D;50070;-32.946;-60.652;2022-11-23T11:19:28;22.16;41.58
63899;HTU21D;50070;-32.946;-60.652;2022-11-23T11:21:57;22.61;41.36
63899;HTU21D;50070;-32.946;-60.652;2022-11-23T11:24:37;22.64;40.43
63899;HTU21D;50070;-32.946;-60.652;2022-11-23T11:27:23;22.63;40.36
63899;HTU21D;50070;-32.946;-60.652;2022-11-23T11:30:02;22.64;39.89
63899;HTU21D;50070;-32.946;-60.652;2022-11-23T11:35:33;24.35;36.31
63899;HTU21D;50070;-32.946;-60.652;2022-11-23T11:38:03;24.76;34.80
63899;HTU21D;50070;-32.946;-60.652;2022-11-23T11:45:57;25.50;34.33
63899;HTU21D;50070;-32.946;-60.652;2022-11-23T11:51:41;25.74;33.39
63899;HTU21D;50070;-32.946;-60.652;2022-11-23T11:54:41;26.19;33.26
63899;HTU21D;50070;-32.946;-60.652;2022-11-23T11:57:20;25.32;34.60
63899;HTU21D;50070;-32.946;-60.652;2022-11-23T11:59:50;25.24;34.15
63899;HTU21D;50070;-32.946;-60.652;2022-11-23T12:10:59;24.12;34.67
63899;HTU21D;50070;-32.946;-60.652;2022-11-23T12:13:33;24.29;33.92
63899;HTU21D;50070;-32.946;-60.652;2022-11-23T12:27:38;24.59;33.30
63899;HTU21D;50070;-32.946;-60.652;2022-11-23T12:30:21;24.74;33.10
63899;HTU21D;50070;-32.946;-60.652;2022-11-23T12:41:02;24.74;33.67
63899;HTU21D;50070;-32.946;-60.652;2022-11-23T12:57:37;25.90;31.76
63899;HTU21D;50070;-32.946;-60.652;2022-11-23T13:00:30;25.53;32.29
63899;HTU21D;50070;-32.946;-60.652;2022-11-23T13:03:04;26.02;31.93
63899;HTU21D;50070;-32.946;-60.652;2022-11-23T13:12:06;25.80;30.80
63899;HTU21D;50070;-32.946;-60.652;2022-11-23T13:15:17;26.31;30.32
63899;HTU21D;50070;-32.946;-60.652;2022-11-23T13:18:08;26.41;29.71
63899;HTU21D;50070;-32.946;-60.652;2022-11-23T13:23:37;26.96;28.97
63899;HTU21D;50070;-32.946;-60.652;2022-11-23T13:28:39;27.24;28.10
63899;HTU21D;50070;-32.946;-60.652;2022-11-23T13:33:44;27.46;27.44
63899;HTU21D;50070;-32.946;-60.652;2022-11-23T13:36:32;27.08;28.09
63899;HTU21D;50070;-32.946;-60.652;2022-11-23T13:39:00;27.36;27.37
63899;HTU21D;50070;-32.946;-60.652;2022-11-23T13:44:23;28.19;26.33
63899;HTU21D;50070;-32.946;-60.652;2022-11-23T13:49:39;28.70;25.85
63899;HTU21D;50070;-32.946;-60.652;2022-11-23T13:52:26;28.24;26.03
63899;HTU21D;50070;-32.946;-60.652;2022-11-23T13:55:01;28.25;25.97
63899;HTU21D;50070;-32.946;-60.652;2022-11-23T13:57:29;28.01;26.72
63899;HTU21D;50070;-32.946;-60.652;2022-11-23T14:06:09;27.88;26.73
63899;HTU21D;50070;-32.946;-60.652;2022-11-23T14:08:37;27.93;27.29
63899;HTU21D;50070;-32.946;-60.652;2022-11-23T14:11:14;28.39;26.89
63899;HTU21D;50070;-32.946;-60.652;2022-11-23T14:14:00;28.27;25.59
63899;HTU21D;50070;-32.946;-60.652;2022-11-23T14:24:58;28.59;24.59
63899;HTU21D;50070;-32.946;-60.652;2022-11-23T14:30:47;28.42;25.61
63899;HTU21D;50070;-32.946;-60.652;2022-11-23T14:33:37;28.84;25.36
63899;HTU21D;50070;-32.946;-60.652;2022-11-23T14:39:52;29.16;24.49
63899;HTU21D;50070;-32.946;-60.652;2022-11-23T14:42:24;29.64;24.19
63899;HTU21D;50070;-32.946;-60.652;2022-11-23T14:44:51;29.77;24.22
63899;HTU21D;50070;-32.946;-60.652;2022-11-23T14:47:29;29.35;24.54
63899;HTU21D;50070;-32.946;-60.652;2022-11-23T14:49:57;29.35;24.38
63899;HTU21D;50070;-32.946;-60.652;2022-11-23T14:52:30;29.48;23.52
63899;HTU21D;50070;-32.946;-60.652;2022-11-23T14:55:00;28.98;23.94
63899;HTU21D;50070;-32.946;-60.652;2022-11-23T14:57:51;29.18;24.25
63899;HTU21D;50070;-32.946;-60.652;2022-11-23T15:00:38;29.59;23.80
63899;HTU21D;50070;-32.946;-60.652;2022-11-23T15:03:18;29.36;23.70
63899;HTU21D;50070;-32.946;-60.652;2022-11-23T15:05:50;29.85;22.49
63899;HTU21D;50070;-32.946;-60.652;2022-11-23T15:08:26;29.48;23.51
63899;HTU21D;50070;-32.946;-60.652;2022-11-23T15:11:07;29.42;23.03
63899;HTU21D;50070;-32.946;-60.652;2022-11-23T15:13:53;29.75;22.98
63899;HTU21D;50070;-32.946;-60.652;2022-11-23T15:16:22;29.98;22.97
63899;HTU21D;50070;-32.946;-60.652;2022-11-23T15:18:49;29.70;22.36
63899;HTU21D;50070;-32.946;-60.652;2022-11-23T15:21:24;29.59;22.59
63899;HTU21D;50070;-32.946;-60.652;2022-11-23T15:23:54;30.06;22.39
63899;HTU21D;50070;-32.946;-60.652;2022-11-23T15:26:25;29.77;21.47
63899;HTU21D;50070;-32.946;-60.652;2022-11-23T15:28:52;29.76;22.56
63899;HTU21D;50070;-32.946;-60.652;2022-11-23T15:31:32;30.22;21.50
63899;HTU21D;50070;-32.946;-60.652;2022-11-23T15:34:14;30.15;22.23
63899;HTU21D;50070;-32.946;-60.652;2022-11-23T15:36:42;30.20;21.95
63899;HTU21D;50070;-32.946;-60.652;2022-11-23T15:39:18;30.95;21.05
63899;HTU21D;50070;-32.946;-60.652;2022-11-23T15:41:47;30.55;22.05
63899;HTU21D;50070;-32.946;-60.652;2022-11-23T15:44:23;30.69;21.58
63899;HTU21D;50070;-32.946;-60.652;2022-11-23T15:46:58;30.44;20.92
63899;HTU21D;50070;-32.946;-60.652;2022-11-23T15:49:26;30.42;20.94
63899;HTU21D;50070;-32.946;-60.652;2022-11-23T15:51:59;30.52;20.71
63899;HTU21D;50070;-32.946;-60.652;2022-11-23T15:54:33;30.86;20.69
63899;HTU21D;50070;-32.946;-60.652;2022-11-23T15:57:00;30.90;21.11
63899;HTU21D;50070;-32.946;-60.652;2022-11-23T15:59:34;31.38;20.46
63899;HTU21D;50070;-32.946;-60.652;2022-11-23T16:02:05;30.98;21.49
63899;HTU21D;50070;-32.946;-60.652;2022-11-23T16:04:41;31.19;21.15
63899;HTU21D;50070;-32.946;-60.652;2022-11-23T16:07:23;30.87;21.57
63899;HTU21D;50070;-32.946;-60.652;2022-11-23T16:10:41;30.87;21.90
63899;HTU21D;50070;-32.946;-60.652;2022-11-23T16:12:50;31.10;21.34
63899;HTU21D;50070;-32.946;-60.652;2022-11-23T16:20:46;30.79;21.44
63899;HTU21D;50070;-32.946;-60.652;2022-11-23T16:23:22;31.43;21.37
63899;HTU21D;50070;-32.946;-60.652;2022-11-23T16:26:01;31.67;20.66
63899;HTU21D;50070;-32.946;-60.652;2022-11-23T16:28:31;30.68;21.85
63899;HTU21D;50070;-32.946;-60.652;2022-11-23T16:30:59;31.09;21.95
63899;HTU21D;50070;-32.946;-60.652;2022-11-23T16:33:26;31.66;21.17
63899;HTU21D;50070;-32.946;-60.652;2022-11-23T16:35:53;31.58;21.08
63899;HTU21D;50070;-32.946;-60.652;2022-11-23T16:38:20;31.76;20.97
63899;HTU21D;50070;-32.946;-60.652;2022-11-23T16:40:48;31.43;21.60
63899;HTU21D;50070;-32.946;-60.652;2022-11-23T16:43:16;31.05;21.95
63899;HTU21D;50070;-32.946;-60.652;2022-11-23T16:45:50;30.70;22.69
63899;HTU21D;50070;-32.946;-60.652;2022-11-23T16:50:54;31.12;21.68
63899;HTU21D;50070;-32.946;-60.652;2022-11-23T16:53:21;30.96;22.42
63899;HTU21D;50070;-32.946;-60.652;2022-11-23T16:55:55;31.21;22.90
63899;HTU21D;50070;-32.946;-60.652;2022-11-23T16:58:21;31.43;22.24
63899;HTU21D;50070;-32.946;-60.652;2022-11-23T17:00:49;31.53;21.64
63899;HTU21D;50070;-32.946;-60.652;2022-11-23T17:03:17;31.41;21.05
63899;HTU21D;50070;-32.946;-60.652;2022-11-23T17:05:45;31.56;21.60
63899;HTU21D;50070;-32.946;-60.652;2022-11-23T17:08:12;31.74;21.40